createdAt,value
2022-11-24T00:01:28.630Z,1.42
2022-11-24T00:04:02.207Z,1.83
2022-11-24T00:06:31.560Z,2.30
2022-11-24T00:08:59.508Z,1.63
2022-11-24T00:11:32.798Z,1.70
2022-11-24T00:14:01.929Z,2.08
2022-11-24T00:16:32.594Z,2.10
2022-11-24T00:19:02.324Z,2.67
2022-11-24T00:21:31.897Z,1.00
2022-11-24T00:23:59.564Z,1.13
2022-11-24T00:26:30.642Z,1.67
2022-11-24T00:29:01.226Z,2.53
2022-11-24T00:31:36.591Z,1.92
2022-11-24T00:34:09.792Z,1.42
2022-11-24T00:36:37.719Z,2.60
2022-11-24T00:39:14.348Z,1.77
2022-11-24T00:41:42.546Z,1.25
2022-11-24T00:44:09.750Z,1.30
2022-11-24T00:46:37.563Z,2.03
2022-11-24T00:49:05.532Z,1.48
2022-11-24T00:51:33.153Z,1.95
2022-11-24T00:54:01.334Z,1.70
2022-11-24T00:56:29.979Z,1.88
2022-11-24T00:58:57.805Z,2.00
2022-11-24T01:01:28.360Z,1.40
2022-11-24T01:03:56.494Z,1.23
2022-11-24T01:06:26.543Z,1.88
2022-11-24T01:08:54.146Z,1.40
2022-11-24T01:11:54.172Z,1.55
2022-11-24T01:14:25.748Z,1.83
2022-11-24T01:16:56.192Z,1.25
2022-11-24T01:19:24.294Z,1.73
2022-11-24T01:21:52.254Z,1.33
2022-11-24T01:24:19.750Z,1.58
2022-11-24T01:26:47.289Z,1.48
2022-11-24T01:29:15.524Z,1.38
2022-11-24T01:31:45.013Z,1.95
2022-11-24T01:34:13.299Z,1.00
2022-11-24T01:36:40.799Z,1.60
2022-11-24T01:39:08.322Z,1.10
2022-11-24T01:41:35.786Z,1.50
2022-11-24T01:44:29.013Z,1.52
2022-11-24T01:47:03.005Z,1.27
2022-11-24T01:49:45.411Z,1.30
2022-11-24T01:52:18.950Z,1.42
2022-11-24T01:54:52.907Z,1.00
2022-11-24T01:57:31.300Z,1.85
2022-11-24T02:00:06.801Z,0.95
2022-11-24T02:02:42.539Z,1.92
2022-11-24T02:05:20.252Z,1.67
2022-11-24T02:07:48.796Z,1.40
2022-11-24T02:10:19.287Z,1.33
2022-11-24T02:12:49.088Z,1.52
2022-11-24T02:15:18.366Z,1.50
2022-11-24T02:17:45.509Z,1.25
2022-11-24T02:20:17.930Z,1.05
2022-11-24T02:23:22.269Z,1.30
2022-11-24T02:26:08.401Z,1.00
2022-11-24T02:28:35.782Z,1.25
2022-11-24T02:31:03.414Z,0.93
2022-11-24T02:33:31.402Z,1.17
2022-11-24T02:35:58.958Z,1.40
2022-11-24T02:38:35.236Z,1.05
2022-11-24T02:41:14.044Z,1.02
2022-11-24T02:43:51.731Z,1.35
2022-11-24T02:46:19.106Z,1.13
2022-11-24T02:48:47.903Z,1.05
2022-11-24T02:51:15.301Z,1.88
2022-11-24T02:53:42.662Z,1.15
2022-11-24T02:56:10.059Z,2.00
2022-11-24T02:58:37.452Z,1.27
2022-11-24T03:01:05.302Z,1.38
2022-11-24T03:03:35.471Z,1.38
2022-11-24T03:06:02.855Z,1.25
2022-11-24T03:08:30.284Z,1.15
2022-11-24T03:10:57.642Z,1.25
2022-11-24T03:13:25.055Z,1.38
2022-11-24T03:15:52.454Z,1.27
2022-11-24T03:18:19.896Z,1.23
2022-11-24T03:20:47.348Z,0.70
2022-11-24T03:23:14.995Z,0.93
2022-11-24T03:25:42.326Z,0.80
2022-11-24T03:28:10.127Z,0.85
2022-11-24T03:30:37.476Z,1.20
2022-11-24T03:33:05.036Z,0.70
2022-11-24T03:35:32.499Z,1.05
2022-11-24T03:37:59.869Z,1.77
2022-11-24T03:40:27.263Z,0.73
2022-11-24T03:42:54.581Z,0.80
2022-11-24T03:45:44.934Z,1.65
2022-11-24T03:48:10.757Z,0.52
2022-11-24T03:50:38.114Z,0.82
2022-11-24T03:53:05.478Z,0.82
2022-11-24T03:55:32.818Z,0.95
2022-11-24T03:58:02.989Z,0.98
2022-11-24T04:00:30.473Z,1.17
2022-11-24T04:02:57.905Z,1.13
2022-11-24T04:05:25.313Z,1.15
2022-11-24T04:07:57.267Z,1.48
2022-11-24T04:10:25.193Z,0.70
2022-11-24T04:12:52.126Z,0.93
2022-11-24T04:15:20.698Z,0.95
2022-11-24T04:17:49.800Z,1.48
2022-11-24T04:20:17.635Z,0.52
2022-11-24T04:22:45.030Z,0.60
2022-11-24T04:25:12.546Z,0.55
2022-11-24T04:27:39.775Z,1.13
2022-11-24T04:30:07.929Z,0.98
2022-11-24T04:32:35.507Z,0.90
2022-11-24T04:35:04.053Z,0.82
2022-11-24T04:37:31.606Z,0.52
2022-11-24T04:39:59.176Z,0.63
2022-11-24T04:42:26.176Z,0.70
2022-11-24T04:44:53.622Z,1.13
2022-11-24T04:47:23.677Z,1.17
2022-11-24T04:49:51.620Z,0.98
2022-11-24T04:52:21.446Z,0.88
2022-11-24T04:54:49.401Z,1.00
2022-11-24T04:57:17.417Z,0.82
2022-11-24T04:59:44.430Z,0.90
2022-11-24T05:02:12.459Z,0.98
2022-11-24T05:04:40.192Z,1.10
2022-11-24T05:07:07.721Z,1.13
2022-11-24T05:09:59.433Z,0.80
2022-11-24T05:12:31.133Z,0.80
2022-11-24T05:14:59.509Z,0.93
2022-11-24T05:17:31.413Z,1.10
2022-11-24T05:19:58.862Z,0.80
2022-11-24T05:22:27.698Z,0.80
2022-11-24T05:24:55.013Z,0.90
2022-11-24T05:27:22.485Z,0.68
2022-11-24T05:29:49.415Z,0.88
2022-11-24T05:32:16.736Z,1.13
2022-11-24T05:34:46.275Z,1.17
2022-11-24T05:37:13.554Z,0.90
2022-11-24T05:39:40.899Z,1.05
2022-11-24T05:42:26.914Z,0.73
2022-11-24T05:44:54.594Z,1.60
2022-11-24T05:47:22.072Z,0.80
2022-11-24T05:49:49.465Z,1.30
2022-11-24T05:52:17.224Z,1.88
2022-11-24T05:54:44.179Z,1.88
2022-11-24T05:57:11.483Z,0.82
2022-11-24T05:59:38.847Z,0.90
2022-11-24T06:02:06.438Z,0.90
2022-11-24T06:04:37.184Z,0.73
2022-11-24T06:07:06.738Z,0.93
2022-11-24T06:09:37.825Z,1.20
2022-11-24T06:12:09.583Z,0.57
2022-11-24T06:14:37.293Z,0.47
2022-11-24T06:17:06.279Z,1.10
2022-11-24T06:19:35.498Z,0.90
2022-11-24T06:22:05.961Z,0.90
2022-11-24T06:24:33.557Z,1.65
2022-11-24T06:27:01.156Z,0.82
2022-11-24T06:29:28.465Z,0.93
2022-11-24T06:31:55.799Z,0.90
2022-11-24T06:34:23.179Z,0.60
2022-11-24T06:36:50.065Z,1.25
2022-11-24T06:39:17.030Z,1.05
2022-11-24T06:41:44.404Z,0.70
2022-11-24T06:44:11.747Z,1.00
2022-11-24T06:46:39.073Z,1.42
2022-11-24T06:49:06.377Z,0.63
2022-11-24T06:51:33.738Z,1.80
2022-11-24T06:54:00.712Z,0.90
2022-11-24T06:56:28.295Z,1.05
2022-11-24T06:58:55.722Z,0.95
2022-11-24T07:01:28.745Z,0.70
2022-11-24T07:03:56.895Z,0.88
2022-11-24T07:06:26.104Z,1.02
2022-11-24T07:08:53.553Z,1.00
2022-11-24T07:11:25.118Z,0.80
2022-11-24T07:13:58.141Z,0.50
2022-11-24T07:16:27.756Z,0.98
2022-11-24T07:18:56.107Z,1.48
2022-11-24T07:21:24.923Z,0.88
2022-11-24T07:23:54.352Z,0.95
2022-11-24T07:26:23.195Z,0.95
2022-11-24T07:28:50.751Z,0.93
2022-11-24T07:31:21.450Z,0.95
2022-11-24T07:33:53.522Z,1.08
2022-11-24T07:36:21.368Z,1.52
2022-11-24T07:38:49.288Z,0.95
2022-11-24T07:41:19.460Z,1.75
2022-11-24T07:43:47.769Z,1.52
2022-11-24T07:46:18.075Z,0.95
2022-11-24T07:48:46.290Z,2.38
2022-11-24T07:51:14.066Z,1.83
2022-11-24T07:53:41.474Z,1.65
2022-11-24T07:56:10.078Z,1.75
2022-11-24T07:58:38.086Z,1.67
2022-11-24T08:01:14.962Z,1.42
2022-11-24T08:03:42.835Z,1.10
2022-11-24T08:06:30.506Z,0.88
2022-11-24T08:09:00.472Z,1.60
2022-11-24T08:11:28.372Z,1.30
2022-11-24T08:13:55.516Z,1.75
2022-11-24T08:16:23.357Z,0.95
2022-11-24T08:18:53.408Z,1.20
2022-11-24T08:21:23.119Z,1.35
2022-11-24T08:23:53.921Z,1.23
2022-11-24T08:26:21.392Z,1.80
2022-11-24T08:28:53.656Z,1.63
2022-11-24T08:33:48.853Z,1.25
2022-11-24T08:36:19.136Z,1.13
2022-11-24T08:38:48.173Z,1.15
2022-11-24T08:41:17.875Z,0.90
2022-11-24T08:43:45.495Z,0.90
2022-11-24T08:46:17.271Z,1.50
2022-11-24T08:48:54.475Z,1.20
2022-11-24T08:51:26.242Z,1.10
2022-11-24T08:53:58.770Z,1.23
2022-11-24T08:58:54.974Z,0.80
2022-11-24T09:01:22.689Z,0.77
2022-11-24T09:03:51.601Z,0.68
2022-11-24T09:06:25.193Z,0.70
2022-11-24T09:08:54.511Z,0.70
2022-11-24T09:11:22.490Z,0.70
2022-11-24T09:13:49.829Z,0.93
2022-11-24T09:16:26.155Z,1.02
2022-11-24T09:19:03.130Z,0.90
2022-11-24T09:21:31.556Z,1.20
2022-11-24T09:23:58.591Z,0.80
2022-11-24T09:26:29.301Z,0.68
2022-11-24T09:28:57.880Z,0.70
2022-11-24T09:31:28.645Z,1.00
2022-11-24T09:33:56.787Z,0.60
2022-11-24T09:36:24.751Z,0.43
2022-11-24T09:38:52.573Z,0.98
2022-11-24T09:41:41.406Z,1.73
2022-11-24T09:44:39.741Z,1.00
2022-11-24T09:48:03.965Z,1.15
2022-11-24T09:50:37.394Z,2.78
2022-11-24T09:53:25.810Z,1.67
2022-11-24T09:56:02.322Z,1.20
2022-11-24T09:58:48.632Z,1.95
2022-11-24T10:01:27.915Z,0.70
2022-11-24T10:03:56.947Z,3.13
2022-11-24T10:06:31.528Z,4.18
2022-11-24T10:09:40.908Z,1.67
2022-11-24T10:12:34.936Z,5.75
2022-11-24T10:15:31.647Z,7.75
2022-11-24T10:18:30.369Z,3.10
2022-11-24T10:21:41.975Z,5.38
2022-11-24T10:24:55.346Z,2.15
2022-11-24T10:27:57.172Z,4.35
2022-11-24T10:30:24.191Z,5.10
2022-11-24T10:33:15.726Z,2.65
2022-11-24T10:35:55.744Z,0.63
2022-11-24T10:38:52.961Z,5.72
2022-11-24T10:41:58.137Z,9.95
2022-11-24T10:44:25.714Z,5.95
2022-11-24T10:46:52.730Z,2.53
2022-11-24T10:49:33.377Z,1.38
2022-11-24T10:52:18.731Z,1.67
2022-11-24T10:55:01.682Z,1.80
2022-11-24T10:57:40.830Z,1.67
2022-11-24T11:00:20.134Z,1.65
2022-11-24T11:02:49.633Z,1.63
2022-11-24T11:05:31.906Z,1.25
2022-11-24T11:08:14.178Z,0.80
2022-11-24T11:10:46.189Z,0.43
2022-11-24T11:13:29.407Z,0.35
2022-11-24T11:15:58.799Z,0.40
2022-11-24T11:18:33.487Z,4.45
2022-11-24T11:21:02.449Z,1.05
2022-11-24T11:23:33.902Z,0.75
2022-11-24T11:26:25.213Z,1.23
2022-11-24T11:35:05.734Z,0.50
2022-11-24T11:37:33.721Z,0.50
2022-11-24T11:40:01.522Z,0.30
2022-11-24T11:43:04.086Z,0.80
2022-11-24T11:48:42.375Z,0.45
2022-11-24T11:51:43.647Z,0.57
2022-11-24T11:54:27.179Z,0.70
2022-11-24T11:57:16.296Z,0.40
2022-11-24T12:00:02.100Z,0.75
2022-11-24T12:02:56.147Z,0.63
2022-11-24T12:05:46.123Z,0.40
2022-11-24T12:08:31.327Z,0.35
2022-11-24T12:11:16.121Z,0.63
2022-11-24T12:14:27.307Z,0.63
2022-11-24T12:17:36.501Z,0.93
2022-11-24T12:20:39.865Z,0.77
2022-11-24T12:23:53.346Z,1.40
2022-11-24T12:26:49.402Z,1.05
2022-11-24T12:29:43.264Z,0.43
2022-11-24T12:33:00.244Z,0.75
2022-11-24T12:35:49.143Z,0.60
2022-11-24T12:38:45.130Z,0.70
2022-11-24T12:41:43.766Z,0.90
2022-11-24T12:45:13.434Z,0.85
2022-11-24T12:48:03.734Z,0.70
2022-11-24T12:50:37.279Z,0.82
2022-11-24T12:53:28.059Z,0.47
2022-11-24T12:56:12.419Z,0.80
2022-11-24T12:58:45.716Z,0.63
2022-11-24T13:01:31.726Z,0.63
2022-11-24T13:04:38.195Z,0.90
2022-11-24T13:07:16.543Z,0.82
2022-11-24T13:10:54.010Z,0.93
2022-11-24T13:13:15.990Z,1.13
2022-11-24T13:16:34.434Z,0.68
2022-11-24T13:18:59.140Z,1.17
2022-11-24T13:21:47.101Z,1.25
2022-11-24T13:24:18.249Z,0.95
2022-11-24T13:26:49.450Z,0.88
2022-11-24T13:29:28.758Z,1.15
2022-11-24T13:32:19.075Z,1.15
2022-11-24T13:34:46.933Z,1.23
2022-11-24T13:37:31.785Z,0.95
2022-11-24T13:40:22.852Z,0.95
2022-11-24T13:43:10.088Z,0.45
2022-11-24T13:45:40.489Z,1.10
2022-11-24T13:48:20.369Z,1.13
2022-11-24T13:50:50.876Z,1.42
2022-11-24T13:53:40.874Z,1.08
2022-11-24T13:56:23.652Z,0.88
2022-11-24T13:59:15.373Z,0.88
2022-11-24T14:01:44.563Z,0.95
2022-11-24T14:04:31.043Z,1.23
2022-11-24T14:07:13.569Z,1.48
2022-11-24T14:09:47.631Z,1.00
2022-11-24T14:12:20.930Z,1.08
2022-11-24T14:14:51.193Z,1.15
2022-11-24T14:17:25.462Z,1.02
2022-11-24T14:19:57.855Z,1.00
2022-11-24T14:22:42.969Z,0.98
2022-11-24T14:25:35.126Z,1.02
2022-11-24T14:28:02.257Z,1.13
2022-11-24T14:30:29.796Z,0.88
2022-11-24T14:33:01.737Z,0.95
2022-11-24T14:35:31.999Z,1.25
2022-11-24T14:38:02.277Z,0.70
2022-11-24T14:40:47.257Z,1.10
2022-11-24T14:43:40.436Z,0.75
2022-11-24T14:46:18.372Z,0.93
2022-11-24T14:48:51.755Z,1.15
2022-11-24T14:51:22.394Z,1.10
2022-11-24T14:53:56.602Z,0.85
2022-11-24T14:56:29.906Z,0.95
2022-11-24T14:58:58.692Z,1.33
2022-11-24T15:01:28.520Z,0.68
2022-11-24T15:05:00.944Z,0.73
2022-11-24T15:07:29.701Z,1.20
2022-11-24T15:10:01.777Z,1.58
2022-11-24T15:12:38.657Z,1.00
2022-11-24T15:15:15.047Z,0.82
2022-11-24T15:17:56.789Z,1.67
2022-11-24T15:20:42.161Z,1.30
2022-11-24T15:23:29.550Z,0.88
2022-11-24T15:26:17.076Z,1.92
2022-11-24T15:28:46.672Z,1.88
2022-11-24T15:31:14.418Z,1.20
2022-11-24T15:33:42.306Z,2.67
2022-11-24T15:36:09.239Z,3.42
2022-11-24T15:38:36.128Z,4.13
2022-11-24T15:41:16.614Z,2.22
2022-11-24T15:43:43.614Z,2.20
2022-11-24T15:46:10.596Z,1.88
2022-11-24T15:48:37.506Z,0.93
2022-11-24T15:51:12.853Z,1.05
2022-11-24T15:53:44.637Z,0.93
2022-11-24T15:56:38.806Z,3.67
2022-11-24T15:59:05.920Z,1.40
2022-11-24T16:01:34.041Z,3.83
2022-11-24T16:04:02.156Z,7.15
2022-11-24T16:06:29.042Z,7.90
2022-11-24T16:08:57.607Z,5.43
2022-11-24T16:11:24.904Z,6.22
2022-11-24T16:13:53.692Z,6.32
2022-11-24T16:16:23.015Z,5.00
2022-11-24T16:18:50.541Z,6.82
2022-11-24T16:21:17.476Z,12.00
2022-11-24T16:23:45.521Z,24.40
2022-11-24T16:26:12.773Z,21.63
2022-11-24T16:28:40.510Z,3.25
2022-11-24T16:31:07.547Z,2.20
2022-11-24T16:33:34.667Z,1.60
2022-11-24T16:36:01.564Z,1.83
2022-11-24T16:38:28.459Z,14.13
2022-11-24T16:40:58.473Z,13.52
2022-11-24T16:43:25.966Z,15.75
2022-11-24T16:46:09.256Z,12.15
2022-11-24T16:48:37.323Z,8.63
2022-11-24T16:51:11.184Z,5.75
2022-11-24T16:53:38.699Z,13.20
2022-11-24T16:56:06.583Z,8.50
2022-11-24T16:58:34.188Z,13.55
2022-11-24T17:01:10.370Z,4.57
2022-11-24T17:03:38.291Z,4.68
2022-11-24T17:06:07.762Z,3.30
2022-11-24T17:08:36.668Z,3.22
2022-11-24T17:11:16.676Z,3.42
2022-11-24T17:13:45.649Z,4.47
2022-11-24T17:16:16.132Z,7.53
2022-11-24T17:18:43.700Z,10.48
2022-11-24T17:21:18.199Z,10.60
2022-11-24T17:23:45.764Z,11.55
2022-11-24T17:26:15.608Z,7.53
2022-11-24T17:28:43.516Z,7.38
2022-11-24T17:31:23.362Z,13.45
2022-11-24T17:33:52.863Z,9.52
2022-11-24T17:36:20.218Z,8.88
2022-11-24T17:38:49.351Z,3.17
2022-11-24T17:41:20.291Z,2.42
2022-11-24T17:43:55.693Z,2.08
2022-11-24T17:46:24.297Z,1.92
2022-11-24T17:48:51.743Z,1.75
2022-11-24T17:51:21.427Z,1.40
2022-11-24T17:53:50.979Z,1.10
2022-11-24T17:56:25.456Z,1.65
2022-11-24T17:58:55.506Z,1.70
2022-11-24T18:01:23.098Z,2.30
2022-11-24T18:03:53.432Z,2.05
2022-11-24T18:06:24.026Z,1.38
2022-11-24T18:08:51.455Z,1.02
2022-11-24T18:11:24.615Z,1.42
2022-11-24T18:13:59.792Z,1.90
2022-11-24T18:16:29.735Z,2.05
2022-11-24T18:19:14.628Z,3.17
2022-11-24T18:21:44.597Z,2.05
2022-11-24T18:24:12.496Z,1.73
2022-11-24T18:26:40.454Z,1.70
2022-11-24T18:29:07.979Z,2.20
2022-11-24T18:31:36.128Z,2.20
2022-11-24T18:34:05.240Z,1.83
2022-11-24T18:36:33.007Z,2.17
2022-11-24T18:39:08.721Z,2.03
2022-11-24T18:41:36.070Z,2.70
2022-11-24T18:44:07.470Z,2.42
2022-11-24T18:46:35.005Z,2.60
2022-11-24T18:49:02.320Z,2.65
2022-11-24T18:51:29.921Z,1.90
2022-11-24T18:54:02.067Z,1.50
2022-11-24T18:56:29.094Z,1.85
2022-11-24T18:58:56.494Z,1.98
2022-11-24T19:01:27.663Z,1.58
2022-11-24T19:03:58.019Z,2.07
2022-11-24T19:06:32.847Z,1.67
2022-11-24T19:09:07.161Z,1.85
2022-11-24T19:11:37.511Z,1.92
2022-11-24T19:14:08.512Z,2.80
2022-11-24T19:16:35.864Z,1.75
2022-11-24T19:19:03.293Z,2.17
2022-11-24T19:21:37.129Z,2.13
2022-11-24T19:24:06.591Z,1.98
2022-11-24T19:26:37.293Z,2.53
2022-11-24T19:29:05.523Z,2.28
2022-11-24T19:31:33.587Z,2.08
2022-11-24T19:34:02.735Z,3.35
2022-11-24T19:36:30.067Z,5.90
2022-11-24T19:38:58.547Z,8.23
2022-11-24T19:41:29.411Z,9.68
2022-11-24T19:43:57.822Z,8.90
2022-11-24T19:46:27.522Z,11.75
2022-11-24T19:48:56.987Z,11.65
2022-11-24T19:51:27.848Z,12.63
2022-11-24T19:53:55.209Z,13.63
2022-11-24T19:56:24.882Z,14.05
2022-11-24T19:58:53.793Z,12.35
2022-11-24T20:01:37.410Z,13.15
2022-11-24T20:04:09.227Z,13.13
2022-11-24T20:06:39.602Z,11.73
2022-11-24T20:09:10.059Z,12.43
2022-11-24T20:11:37.604Z,11.63
2022-11-24T20:14:05.661Z,11.50
2022-11-24T20:16:34.580Z,10.60
2022-11-24T20:19:12.309Z,8.93
2022-11-24T20:21:41.609Z,7.60
2022-11-24T20:24:13.518Z,7.18
2022-11-24T20:26:50.198Z,6.07
2022-11-24T20:29:18.405Z,6.65
2022-11-24T20:31:49.536Z,6.13
2022-11-24T20:34:16.885Z,7.72
2022-11-24T20:36:45.828Z,7.85
2022-11-24T20:39:16.204Z,5.85
2022-11-24T20:41:43.169Z,7.55
2022-11-24T20:44:15.121Z,8.10
2022-11-24T20:46:44.833Z,7.28
2022-11-24T20:49:16.534Z,7.45
2022-11-24T20:51:46.834Z,9.43
2022-11-24T20:54:16.705Z,9.88
2022-11-24T20:56:46.251Z,9.48
2022-11-24T20:59:21.433Z,8.93
2022-11-24T21:01:50.008Z,8.95
2022-11-24T21:04:21.357Z,8.45
2022-11-24T21:06:48.576Z,7.70
2022-11-24T21:09:16.169Z,7.47
2022-11-24T21:11:44.011Z,9.00
2022-11-24T21:14:11.668Z,16.67
2022-11-24T21:16:42.093Z,14.23
2022-11-24T21:19:17.830Z,9.93
2022-11-24T21:21:47.433Z,12.63
2022-11-24T21:24:16.940Z,9.77
2022-11-24T21:26:47.689Z,8.02
2022-11-24T21:29:18.792Z,7.40
2022-11-24T21:31:45.799Z,7.55
2022-11-24T21:34:16.400Z,5.95
2022-11-24T21:36:44.994Z,5.55
2022-11-24T21:39:16.140Z,5.65
2022-11-24T21:41:43.750Z,6.55
2022-11-24T21:44:14.916Z,7.30
2022-11-24T21:46:48.117Z,7.15
2022-11-24T21:49:17.887Z,6.45
2022-11-24T21:51:45.242Z,6.60
2022-11-24T21:54:12.579Z,7.32
2022-11-24T21:56:39.876Z,8.10
2022-11-24T21:59:07.226Z,8.25
2022-11-24T22:01:34.753Z,8.05
2022-11-24T22:04:01.752Z,8.10
2022-11-24T22:06:28.703Z,9.20
2022-11-24T22:08:58.884Z,10.70
2022-11-24T22:11:26.394Z,7.72
2022-11-24T22:13:53.864Z,6.95
2022-11-24T22:16:23.761Z,5.35
2022-11-24T22:21:35.665Z,5.60
2022-11-24T22:24:05.913Z,5.07
2022-11-24T22:26:33.351Z,4.65
2022-11-24T22:29:07.412Z,3.72
2022-11-24T22:31:36.557Z,4.75
2022-11-24T22:34:03.948Z,4.55
2022-11-24T22:36:31.328Z,4.78
2022-11-24T22:39:03.826Z,5.15
2022-11-24T22:41:33.724Z,5.38
2022-11-24T22:44:01.008Z,4.65
2022-11-24T22:46:30.365Z,4.60
2022-11-24T22:49:00.281Z,4.85
2022-11-24T22:51:33.701Z,5.10
2022-11-24T22:54:03.797Z,4.60
2022-11-24T22:56:34.569Z,3.92
2022-11-24T22:59:02.950Z,5.03
2022-11-24T23:01:31.865Z,5.72
2022-11-24T23:03:58.932Z,5.78
2022-11-24T23:06:28.774Z,5.15
2022-11-24T23:08:57.974Z,5.97
2022-11-24T23:11:37.797Z,6.38
2022-11-24T23:14:08.140Z,5.50
2022-11-24T23:16:35.618Z,6.05
2022-11-24T23:19:03.309Z,6.82
2022-11-24T23:21:33.368Z,6.97
2022-11-24T23:24:02.938Z,6.00
2022-11-24T23:26:39.672Z,6.55
2022-11-24T23:29:07.690Z,6.78
2022-11-24T23:31:35.469Z,6.30
2022-11-24T23:34:04.225Z,6.63
2022-11-24T23:36:32.180Z,6.43
2022-11-24T23:39:08.803Z,7.00
2022-11-24T23:41:35.971Z,6.15
2022-11-24T23:44:03.572Z,6.55
2022-11-24T23:46:31.068Z,6.05
2022-11-24T23:48:58.421Z,6.32
2022-11-24T23:51:28.585Z,5.78
2022-11-24T23:53:56.400Z,5.85
2022-11-24T23:56:32.426Z,5.88
2022-11-24T23:59:04.112Z,5.25
